sensor_id;sensor_type;location;lat;lon;timestamp;temperature;humidity
39079;DHT22;24829;49.208;12.080;2022-12-05T00:01:36;4.20;99.90
39079;DHT22;24829;49.208;12.080;2022-12-05T00:04:08;4.20;99.90
39079;DHT22;24829;49.208;12.080;2022-12-05T00:06:35;4.20;99.90
39079;DHT22;24829;49.208;12.080;2022-12-05T00:09:02;4.20;99.90
39079;DHT22;24829;49.208;12.080;2022-12-05T00:11:30;4.20;99.90
39079;DHT22;24829;49.208;12.080;2022-12-05T00:13:58;4.20;99.90
39079;DHT22;24829;49.208;12.080;2022-12-05T00:16:26;4.20;99.90
39079;DHT22;24829;49.208;12.080;2022-12-05T00:18:52;4.20;99.90
39079;DHT22;24829;49.208;12.080;2022-12-05T00:21:24;4.20;99.90
39079;DHT22;24829;49.208;12.080;2022-12-05T00:23:51;4.20;99.90
39079;DHT22;24829;49.208;12.080;2022-12-05T00:26:17;4.20;99.90
39079;DHT22;24829;49.208;12.080;2022-12-05T00:28:43;4.20;99.90
39079;DHT22;24829;49.208;12.080;2022-12-05T00:31:14;4.20;99.90
39079;DHT22;24829;49.208;12.080;2022-12-05T00:33:40;4.20;99.90
39079;DHT22;24829;49.208;12.080;2022-12-05T00:36:18;4.20;99.90
39079;DHT22;24829;49.208;12.080;2022-12-05T00:38:44;4.20;99.90
39079;DHT22;24829;49.208;12.080;2022-12-05T00:41:22;4.20;99.90
39079;DHT22;24829;49.208;12.080;2022-12-05T00:43:48;4.30;99.90
39079;DHT22;24829;49.208;12.080;2022-12-05T00:46:16;4.30;99.90
39079;DHT22;24829;49.208;12.080;2022-12-05T00:48:42;4.30;99.90
39079;DHT22;24829;49.208;12.080;2022-12-05T00:51:20;4.30;99.90
39079;DHT22;24829;49.208;12.080;2022-12-05T00:53:46;4.30;99.90
39079;DHT22;24829;49.208;12.080;2022-12-05T00:56:15;4.30;99.90
39079;DHT22;24829;49.208;12.080;2022-12-05T00:58:41;4.30;99.90
39079;DHT22;24829;49.208;12.080;2022-12-05T01:01:11;4.30;99.90
39079;DHT22;24829;49.208;12.080;2022-12-05T01:03:38;4.30;99.90
39079;DHT22;24829;49.208;12.080;2022-12-05T01:06:04;4.30;99.90
39079;DHT22;24829;49.208;12.080;2022-12-05T01:08:34;4.30;99.90
39079;DHT22;24829;49.208;12.080;2022-12-05T01:11:00;4.30;99.90
39079;DHT22;24829;49.208;12.080;2022-12-05T01:13:26;4.30;99.90
39079;DHT22;24829;49.208;12.080;2022-12-05T01:16:25;4.20;99.90
39079;DHT22;24829;49.208;12.080;2022-12-05T01:18:51;4.10;99.90
39079;DHT22;24829;49.208;12.080;2022-12-05T01:21:17;4.00;99.90
39079;DHT22;24829;49.208;12.080;2022-12-05T01:23:43;3.90;99.90
39079;DHT22;24829;49.208;12.080;2022-12-05T01:26:11;3.90;99.90
39079;DHT22;24829;49.208;12.080;2022-12-05T01:28:38;3.90;99.90
39079;DHT22;24829;49.208;12.080;2022-12-05T01:31:26;3.90;99.90
39079;DHT22;24829;49.208;12.080;2022-12-05T01:33:54;3.90;99.90
39079;DHT22;24829;49.208;12.080;2022-12-05T01:36:21;3.90;99.90
39079;DHT22;24829;49.208;12.080;2022-12-05T01:38:47;4.00;99.90
39079;DHT22;24829;49.208;12.080;2022-12-05T01:41:17;4.00;99.90
39079;DHT22;24829;49.208;12.080;2022-12-05T01:46:49;4.00;99.90
39079;DHT22;24829;49.208;12.080;2022-12-05T01:51:46;4.10;99.90
39079;DHT22;24829;49.208;12.080;2022-12-05T01:54:12;4.10;99.90
39079;DHT22;24829;49.208;12.080;2022-12-05T01:56:41;4.20;99.90
39079;DHT22;24829;49.208;12.080;2022-12-05T01:59:08;4.20;99.90
39079;DHT22;24829;49.208;12.080;2022-12-05T02:01:35;4.20;99.90
39079;DHT22;24829;49.208;12.080;2022-12-05T02:04:02;4.20;99.90
39079;DHT22;24829;49.208;12.080;2022-12-05T02:06:28;4.20;99.90
39079;DHT22;24829;49.208;12.080;2022-12-05T02:08:54;4.20;99.90
39079;DHT22;24829;49.208;12.080;2022-12-05T02:11:21;4.20;99.90
39079;DHT22;24829;49.208;12.080;2022-12-05T02:30:56;4.10;99.90
39079;DHT22;24829;49.208;12.080;2022-12-05T02:33:38;4.10;99.90
39079;DHT22;24829;49.208;12.080;2022-12-05T02:39:14;4.00;99.90
39079;DHT22;24829;49.208;12.080;2022-12-05T02:41:49;4.00;99.90
39079;DHT22;24829;49.208;12.080;2022-12-05T02:44:30;4.00;99.90
39079;DHT22;24829;49.208;12.080;2022-12-05T02:46:58;4.00;99.90
39079;DHT22;24829;49.208;12.080;2022-12-05T02:49:35;4.00;99.90
39079;DHT22;24829;49.208;12.080;2022-12-05T02:52:05;4.00;99.90
39079;DHT22;24829;49.208;12.080;2022-12-05T02:54:38;3.90;99.90
39079;DHT22;24829;49.208;12.080;2022-12-05T02:57:06;3.90;99.90
39079;DHT22;24829;49.208;12.080;2022-12-05T02:59:33;3.80;99.90
39079;DHT22;24829;49.208;12.080;2022-12-05T03:01:58;3.70;99.90
39079;DHT22;24829;49.208;12.080;2022-12-05T03:04:25;3.70;99.90
39079;DHT22;24829;49.208;12.080;2022-12-05T03:07:07;3.70;99.90
39079;DHT22;24829;49.208;12.080;2022-12-05T03:09:48;3.60;99.90
39079;DHT22;24829;49.208;12.080;2022-12-05T03:12:19;3.70;99.90
39079;DHT22;24829;49.208;12.080;2022-12-05T03:14:50;3.70;99.90
39079;DHT22;24829;49.208;12.080;2022-12-05T03:17:21;3.70;99.90
39079;DHT22;24829;49.208;12.080;2022-12-05T03:20:01;3.70;99.90
39079;DHT22;24829;49.208;12.080;2022-12-05T03:22:32;3.70;99.90
39079;DHT22;24829;49.208;12.080;2022-12-05T03:25:00;3.70;99.90
39079;DHT22;24829;49.208;12.080;2022-12-05T03:30:13;3.80;99.90
39079;DHT22;24829;49.208;12.080;2022-12-05T03:33:02;3.80;99.90
39079;DHT22;24829;49.208;12.080;2022-12-05T03:38:08;3.80;99.90
39079;DHT22;24829;49.208;12.080;2022-12-05T03:46:06;3.80;99.90
39079;DHT22;24829;49.208;12.080;2022-12-05T03:48:38;3.90;99.90
39079;DHT22;24829;49.208;12.080;2022-12-05T03:51:07;3.80;99.90
39079;DHT22;24829;49.208;12.080;2022-12-05T03:53:39;3.90;99.90
39079;DHT22;24829;49.208;12.080;2022-12-05T03:56:11;3.90;99.90
39079;DHT22;24829;49.208;12.080;2022-12-05T03:59:26;3.80;99.90
39079;DHT22;24829;49.208;12.080;2022-12-05T04:01:54;3.80;99.90
39079;DHT22;24829;49.208;12.080;2022-12-05T04:04:28;3.80;99.90
39079;DHT22;24829;49.208;12.080;2022-12-05T04:06:57;3.80;99.90
39079;DHT22;24829;49.208;12.080;2022-12-05T04:09:32;3.80;99.90
39079;DHT22;24829;49.208;12.080;2022-12-05T04:12:03;3.80;99.90
39079;DHT22;24829;49.208;12.080;2022-12-05T04:14:36;3.80;99.90
39079;DHT22;24829;49.208;12.080;2022-12-05T04:17:08;3.80;99.90
39079;DHT22;24829;49.208;12.080;2022-12-05T04:19:39;3.80;99.90
39079;DHT22;24829;49.208;12.080;2022-12-05T04:22:25;3.70;99.90
39079;DHT22;24829;49.208;12.080;2022-12-05T04:24:54;3.70;99.90
39079;DHT22;24829;49.208;12.080;2022-12-05T04:30:21;3.50;99.90
39079;DHT22;24829;49.208;12.080;2022-12-05T04:35:23;3.40;99.90
39079;DHT22;24829;49.208;12.080;2022-12-05T04:37:55;3.30;99.90
39079;DHT22;24829;49.208;12.080;2022-12-05T04:40:30;3.30;99.90
39079;DHT22;24829;49.208;12.080;2022-12-05T04:42:59;3.20;99.90
39079;DHT22;24829;49.208;12.080;2022-12-05T04:45:26;3.20;99.90
39079;DHT22;24829;49.208;12.080;2022-12-05T04:47:59;3.20;99.90
39079;DHT22;24829;49.208;12.080;2022-12-05T04:50:28;3.20;99.90
39079;DHT22;24829;49.208;12.080;2022-12-05T04:52:56;3.10;99.90
39079;DHT22;24829;49.208;12.080;2022-12-05T04:55:24;3.10;99.90
39079;DHT22;24829;49.208;12.080;2022-12-05T04:58:05;3.10;99.90
39079;DHT22;24829;49.208;12.080;2022-12-05T05:01:16;3.10;99.90
39079;DHT22;24829;49.208;12.080;2022-12-05T05:04:12;3.00;99.90
39079;DHT22;24829;49.208;12.080;2022-12-05T05:06:12;3.10;99.90
39079;DHT22;24829;49.208;12.080;2022-12-05T05:09:03;3.10;99.90
39079;DHT22;24829;49.208;12.080;2022-12-05T05:11:31;3.10;99.90
39079;DHT22;24829;49.208;12.080;2022-12-05T05:13:57;3.20;99.90
39079;DHT22;24829;49.208;12.080;2022-12-05T05:16:42;3.20;99.90
39079;DHT22;24829;49.208;12.080;2022-12-05T05:19:10;3.30;99.90
39079;DHT22;24829;49.208;12.080;2022-12-05T05:21:39;3.30;99.90
39079;DHT22;24829;49.208;12.080;2022-12-05T05:24:06;3.30;99.90
39079;DHT22;24829;49.208;12.080;2022-12-05T05:26:34;3.30;99.90
39079;DHT22;24829;49.208;12.080;2022-12-05T05:29:00;3.30;99.90
39079;DHT22;24829;49.208;12.080;2022-12-05T05:31:26;3.30;99.90
39079;DHT22;24829;49.208;12.080;2022-12-05T05:33:55;3.30;99.90
39079;DHT22;24829;49.208;12.080;2022-12-05T05:36:23;3.40;99.90
39079;DHT22;24829;49.208;12.080;2022-12-05T05:38:51;3.40;99.90
39079;DHT22;24829;49.208;12.080;2022-12-05T05:41:23;3.40;99.90
39079;DHT22;24829;49.208;12.080;2022-12-05T05:43:50;3.50;99.90
39079;DHT22;24829;49.208;12.080;2022-12-05T05:46:19;3.50;99.90
39079;DHT22;24829;49.208;12.080;2022-12-05T05:48:46;3.50;99.90
39079;DHT22;24829;49.208;12.080;2022-12-05T05:51:13;3.50;99.90
39079;DHT22;24829;49.208;12.080;2022-12-05T05:53:40;3.50;99.90
39079;DHT22;24829;49.208;12.080;2022-12-05T05:56:08;3.50;99.90
39079;DHT22;24829;49.208;12.080;2022-12-05T05:58:35;3.50;99.90
39079;DHT22;24829;49.208;12.080;2022-12-05T06:01:09;3.50;99.90
39079;DHT22;24829;49.208;12.080;2022-12-05T06:03:36;3.60;99.90
39079;DHT22;24829;49.208;12.080;2022-12-05T06:06:04;3.50;99.90
39079;DHT22;24829;49.208;12.080;2022-12-05T06:08:31;3.50;99.90
39079;DHT22;24829;49.208;12.080;2022-12-05T06:10:58;3.60;99.90
39079;DHT22;24829;49.208;12.080;2022-12-05T06:13:23;3.60;99.90
39079;DHT22;24829;49.208;12.080;2022-12-05T06:15:49;3.60;99.90
39079;DHT22;24829;49.208;12.080;2022-12-05T06:18:14;3.50;99.90
39079;DHT22;24829;49.208;12.080;2022-12-05T06:20:40;3.60;99.90
39079;DHT22;24829;49.208;12.080;2022-12-05T06:23:06;3.60;99.90
39079;DHT22;24829;49.208;12.080;2022-12-05T06:25:31;3.50;99.90
39079;DHT22;24829;49.208;12.080;2022-12-05T06:27:57;3.50;99.90
39079;DHT22;24829;49.208;12.080;2022-12-05T06:30:22;3.50;99.90
39079;DHT22;24829;49.208;12.080;2022-12-05T06:32:48;3.50;99.90
39079;DHT22;24829;49.208;12.080;2022-12-05T06:35:14;3.50;99.90
39079;DHT22;24829;49.208;12.080;2022-12-05T06:37:43;3.40;99.90
39079;DHT22;24829;49.208;12.080;2022-12-05T06:40:12;3.30;99.90
39079;DHT22;24829;49.208;12.080;2022-12-05T06:42:38;3.20;99.90
39079;DHT22;24829;49.208;12.080;2022-12-05T06:45:05;3.20;99.90
39079;DHT22;24829;49.208;12.080;2022-12-05T06:47:31;3.10;99.90
39079;DHT22;24829;49.208;12.080;2022-12-05T06:49:56;3.10;99.90
39079;DHT22;24829;49.208;12.080;2022-12-05T06:52:22;3.10;99.90
39079;DHT22;24829;49.208;12.080;2022-12-05T06:54:47;3.10;99.90
39079;DHT22;24829;49.208;12.080;2022-12-05T06:57:13;3.20;99.90
39079;DHT22;24829;49.208;12.080;2022-12-05T06:59:39;3.10;99.90
39079;DHT22;24829;49.208;12.080;2022-12-05T07:02:05;3.20;99.90
39079;DHT22;24829;49.208;12.080;2022-12-05T07:04:33;3.20;99.90
39079;DHT22;24829;49.208;12.080;2022-12-05T07:06:59;3.20;99.90
39079;DHT22;24829;49.208;12.080;2022-12-05T07:09:27;3.20;99.90
39079;DHT22;24829;49.208;12.080;2022-12-05T07:15:35;3.20;99.90
39079;DHT22;24829;49.208;12.080;2022-12-05T07:18:01;3.10;99.90
39079;DHT22;24829;49.208;12.080;2022-12-05T07:20:27;3.20;99.90
39079;DHT22;24829;49.208;12.080;2022-12-05T07:22:52;3.20;99.90
39079;DHT22;24829;49.208;12.080;2022-12-05T07:25:18;3.20;99.90
39079;DHT22;24829;49.208;12.080;2022-12-05T07:27:46;3.20;99.90
39079;DHT22;24829;49.208;12.080;2022-12-05T07:30:12;3.20;99.90
39079;DHT22;24829;49.208;12.080;2022-12-05T07:32:38;3.20;99.90
39079;DHT22;24829;49.208;12.080;2022-12-05T07:35:03;3.20;99.90
39079;DHT22;24829;49.208;12.080;2022-12-05T07:37:29;3.20;99.90
39079;DHT22;24829;49.208;12.080;2022-12-05T07:39:54;3.20;99.90
39079;DHT22;24829;49.208;12.080;2022-12-05T07:42:20;3.10;99.90
39079;DHT22;24829;49.208;12.080;2022-12-05T07:44:46;3.10;99.90
39079;DHT22;24829;49.208;12.080;2022-12-05T07:47:11;3.00;99.90
39079;DHT22;24829;49.208;12.080;2022-12-05T07:49:37;3.00;99.90
39079;DHT22;24829;49.208;12.080;2022-12-05T07:52:02;3.10;99.90
39079;DHT22;24829;49.208;12.080;2022-12-05T07:54:28;3.00;99.90
39079;DHT22;24829;49.208;12.080;2022-12-05T07:56:53;3.00;99.90
39079;DHT22;24829;49.208;12.080;2022-12-05T07:59:19;3.00;99.90
39079;DHT22;24829;49.208;12.080;2022-12-05T08:01:45;3.10;99.90
39079;DHT22;24829;49.208;12.080;2022-12-05T08:04:10;3.00;99.90
39079;DHT22;24829;49.208;12.080;2022-12-05T08:06:36;3.00;99.90
39079;DHT22;24829;49.208;12.080;2022-12-05T08:09:02;3.00;99.90
39079;DHT22;24829;49.208;12.080;2022-12-05T08:11:29;3.00;99.90
39079;DHT22;24829;49.208;12.080;2022-12-05T08:13:56;3.00;99.90
39079;DHT22;24829;49.208;12.080;2022-12-05T08:16:24;3.00;99.90
39079;DHT22;24829;49.208;12.080;2022-12-05T08:18:54;2.90;99.90
39079;DHT22;24829;49.208;12.080;2022-12-05T08:21:20;3.00;99.90
39079;DHT22;24829;49.208;12.080;2022-12-05T08:23:46;3.00;99.90
39079;DHT22;24829;49.208;12.080;2022-12-05T08:26:20;3.00;99.90
39079;DHT22;24829;49.208;12.080;2022-12-05T08:28:50;3.10;99.90
39079;DHT22;24829;49.208;12.080;2022-12-05T08:31:17;3.00;99.90
39079;DHT22;24829;49.208;12.080;2022-12-05T08:33:44;3.00;99.90
39079;DHT22;24829;49.208;12.080;2022-12-05T08:36:13;3.00;99.90
39079;DHT22;24829;49.208;12.080;2022-12-05T08:38:42;3.00;99.90
39079;DHT22;24829;49.208;12.080;2022-12-05T08:41:13;3.00;99.90
39079;DHT22;24829;49.208;12.080;2022-12-05T08:43:39;3.00;99.90
39079;DHT22;24829;49.208;12.080;2022-12-05T08:46:05;3.00;99.90
39079;DHT22;24829;49.208;12.080;2022-12-05T08:48:32;3.00;99.90
39079;DHT22;24829;49.208;12.080;2022-12-05T08:50:59;3.00;99.90
39079;DHT22;24829;49.208;12.080;2022-12-05T08:53:28;3.00;99.90
39079;DHT22;24829;49.208;12.080;2022-12-05T08:55:53;3.10;99.90
39079;DHT22;24829;49.208;12.080;2022-12-05T08:58:19;3.10;99.90
39079;DHT22;24829;49.208;12.080;2022-12-05T09:00:45;3.10;99.90
39079;DHT22;24829;49.208;12.080;2022-12-05T09:03:11;3.10;99.90
39079;DHT22;24829;49.208;12.080;2022-12-05T09:05:37;3.10;99.90
39079;DHT22;24829;49.208;12.080;2022-12-05T09:08:02;3.10;99.90
39079;DHT22;24829;49.208;12.080;2022-12-05T09:10:28;3.10;99.90
39079;DHT22;24829;49.208;12.080;2022-12-05T09:12:54;3.10;99.90
39079;DHT22;24829;49.208;12.080;2022-12-05T09:15:19;3.00;99.90
39079;DHT22;24829;49.208;12.080;2022-12-05T09:17:45;2.90;99.90
39079;DHT22;24829;49.208;12.080;2022-12-05T09:20:11;2.90;99.90
39079;DHT22;24829;49.208;12.080;2022-12-05T09:22:39;2.80;99.90
39079;DHT22;24829;49.208;12.080;2022-12-05T09:25:05;2.80;99.90
39079;DHT22;24829;49.208;12.080;2022-12-05T09:27:31;2.80;99.90
39079;DHT22;24829;49.208;12.080;2022-12-05T09:29:56;2.90;99.90
39079;DHT22;24829;49.208;12.080;2022-12-05T09:32:22;2.90;99.90
39079;DHT22;24829;49.208;12.080;2022-12-05T09:34:47;2.90;99.90
39079;DHT22;24829;49.208;12.080;2022-12-05T09:37:13;2.90;99.90
39079;DHT22;24829;49.208;12.080;2022-12-05T09:39:38;2.90;99.90
39079;DHT22;24829;49.208;12.080;2022-12-05T09:42:37;2.90;99.90
39079;DHT22;24829;49.208;12.080;2022-12-05T09:45:27;3.00;99.90
39079;DHT22;24829;49.208;12.080;2022-12-05T09:48:13;3.00;99.90
39079;DHT22;24829;49.208;12.080;2022-12-05T09:50:41;3.00;99.90
39079;DHT22;24829;49.208;12.080;2022-12-05T09:58:46;3.10;99.90
39079;DHT22;24829;49.208;12.080;2022-12-05T10:19:56;3.40;99.90
39079;DHT22;24829;49.208;12.080;2022-12-05T10:22:44;3.40;99.90
39079;DHT22;24829;49.208;12.080;2022-12-05T10:25:11;3.50;99.90
39079;DHT22;24829;49.208;12.080;2022-12-05T10:27:46;3.50;99.90
39079;DHT22;24829;49.208;12.080;2022-12-05T10:30:15;3.50;99.90
39079;DHT22;24829;49.208;12.080;2022-12-05T10:33:00;3.50;99.90
39079;DHT22;24829;49.208;12.080;2022-12-05T10:35:34;3.50;99.90
39079;DHT22;24829;49.208;12.080;2022-12-05T10:41:07;3.50;99.90
39079;DHT22;24829;49.208;12.080;2022-12-05T10:43:35;3.50;99.90
39079;DHT22;24829;49.208;12.080;2022-12-05T10:46:04;3.50;99.90
39079;DHT22;24829;49.208;12.080;2022-12-05T10:48:35;3.60;99.90
39079;DHT22;24829;49.208;12.080;2022-12-05T10:51:01;3.60;99.90
39079;DHT22;24829;49.208;12.080;2022-12-05T10:53:40;3.60;99.90
39079;DHT22;24829;49.208;12.080;2022-12-05T10:56:39;3.60;99.90
39079;DHT22;24829;49.208;12.080;2022-12-05T10:59:07;3.60;99.90
39079;DHT22;24829;49.208;12.080;2022-12-05T11:01:34;3.60;99.90
39079;DHT22;24829;49.208;12.080;2022-12-05T11:04:05;3.60;99.90
39079;DHT22;24829;49.208;12.080;2022-12-05T11:06:32;3.60;99.90
39079;DHT22;24829;49.208;12.080;2022-12-05T11:11:30;3.50;99.90
39079;DHT22;24829;49.208;12.080;2022-12-05T11:14:04;3.50;99.90
39079;DHT22;24829;49.208;12.080;2022-12-05T11:16:37;3.40;99.90
39079;DHT22;24829;49.208;12.080;2022-12-05T11:21:46;3.20;99.90
39079;DHT22;24829;49.208;12.080;2022-12-05T11:26:47;3.10;99.90
39079;DHT22;24829;49.208;12.080;2022-12-05T11:29:33;3.10;99.90
39079;DHT22;24829;49.208;12.080;2022-12-05T11:31:59;3.00;99.90
39079;DHT22;24829;49.208;12.080;2022-12-05T11:34:30;3.00;99.90
39079;DHT22;24829;49.208;12.080;2022-12-05T11:37:04;3.00;99.90
39079;DHT22;24829;49.208;12.080;2022-12-05T11:39:31;3.10;99.90
39079;DHT22;24829;49.208;12.080;2022-12-05T11:45:07;3.10;99.90
39079;DHT22;24829;49.208;12.080;2022-12-05T11:47:59;3.10;99.90
39079;DHT22;24829;49.208;12.080;2022-12-05T11:53:37;3.10;99.90
39079;DHT22;24829;49.208;12.080;2022-12-05T12:01:53;3.20;99.90
39079;DHT22;24829;49.208;12.080;2022-12-05T12:07:06;3.30;99.90
39079;DHT22;24829;49.208;12.080;2022-12-05T12:09:49;3.40;99.90
39079;DHT22;24829;49.208;12.080;2022-12-05T12:12:25;3.50;99.90
39079;DHT22;24829;49.208;12.080;2022-12-05T12:20:51;3.60;99.90
39079;DHT22;24829;49.208;12.080;2022-12-05T12:23:42;3.60;99.90
39079;DHT22;24829;49.208;12.080;2022-12-05T12:26:21;3.60;99.90
39079;DHT22;24829;49.208;12.080;2022-12-05T12:34:04;3.60;99.90
39079;DHT22;24829;49.208;12.080;2022-12-05T12:36:40;3.60;99.90
39079;DHT22;24829;49.208;12.080;2022-12-05T12:39:26;3.60;99.90
39079;DHT22;24829;49.208;12.080;2022-12-05T12:50:23;3.30;99.90
39079;DHT22;24829;49.208;12.080;2022-12-05T12:53:03;3.20;99.90
39079;DHT22;24829;49.208;12.080;2022-12-05T12:59:35;3.00;99.90
39079;DHT22;24829;49.208;12.080;2022-12-05T13:02:13;3.00;99.90
39079;DHT22;24829;49.208;12.080;2022-12-05T13:04:50;3.10;99.90
39079;DHT22;24829;49.208;12.080;2022-12-05T13:07:25;3.10;99.90
39079;DHT22;24829;49.208;12.080;2022-12-05T13:09:57;3.00;99.90
39079;DHT22;24829;49.208;12.080;2022-12-05T13:12:28;3.00;99.90
39079;DHT22;24829;49.208;12.080;2022-12-05T13:14:58;3.10;99.90
39079;DHT22;24829;49.208;12.080;2022-12-05T13:17:25;3.10;99.90
39079;DHT22;24829;49.208;12.080;2022-12-05T13:19:52;3.10;99.90
39079;DHT22;24829;49.208;12.080;2022-12-05T13:22:22;3.20;99.90
39079;DHT22;24829;49.208;12.080;2022-12-05T13:24:52;3.20;99.90
39079;DHT22;24829;49.208;12.080;2022-12-05T13:27:25;3.20;99.90
39079;DHT22;24829;49.208;12.080;2022-12-05T13:30:00;3.20;99.90
39079;DHT22;24829;49.208;12.080;2022-12-05T13:32:32;3.20;99.90
39079;DHT22;24829;49.208;12.080;2022-12-05T13:38:27;3.40;99.90
39079;DHT22;24829;49.208;12.080;2022-12-05T13:41:12;3.40;99.90
39079;DHT22;24829;49.208;12.080;2022-12-05T13:43:58;3.40;99.90
39079;DHT22;24829;49.208;12.080;2022-12-05T13:46:32;3.50;99.90
39079;DHT22;24829;49.208;12.080;2022-12-05T13:49:03;3.50;99.90
39079;DHT22;24829;49.208;12.080;2022-12-05T13:51:32;3.40;99.90
39079;DHT22;24829;49.208;12.080;2022-12-05T13:54:09;3.40;99.90
39079;DHT22;24829;49.208;12.080;2022-12-05T13:56:58;3.40;99.90
39079;DHT22;24829;49.208;12.080;2022-12-05T14:00:01;3.40;99.90
39079;DHT22;24829;49.208;12.080;2022-12-05T14:07:53;3.50;99.90
39079;DHT22;24829;49.208;12.080;2022-12-05T14:13:01;3.50;99.90
39079;DHT22;24829;49.208;12.080;2022-12-05T14:15:35;3.50;99.90
39079;DHT22;24829;49.208;12.080;2022-12-05T14:18:17;3.50;99.90
39079;DHT22;24829;49.208;12.080;2022-12-05T14:20:55;3.50;99.90
39079;DHT22;24829;49.208;12.080;2022-12-05T14:26:22;3.40;99.90
39079;DHT22;24829;49.208;12.080;2022-12-05T14:34:28;3.20;99.90
39079;DHT22;24829;49.208;12.080;2022-12-05T14:39:32;3.00;99.90
39079;DHT22;24829;49.208;12.080;2022-12-05T14:42:01;3.00;99.90
39079;DHT22;24829;49.208;12.080;2022-12-05T14:44:28;2.90;99.90
39079;DHT22;24829;49.208;12.080;2022-12-05T14:47:03;2.90;99.90
39079;DHT22;24829;49.208;12.080;2022-12-05T14:49:50;2.90;99.90
39079;DHT22;24829;49.208;12.080;2022-12-05T14:52:21;2.90;99.90
39079;DHT22;24829;49.208;12.080;2022-12-05T14:54:51;2.90;99.90
39079;DHT22;24829;49.208;12.080;2022-12-05T14:57:31;2.90;99.90
39079;DHT22;24829;49.208;12.080;2022-12-05T15:00:03;3.00;99.90
39079;DHT22;24829;49.208;12.080;2022-12-05T15:02:38;3.00;99.90
39079;DHT22;24829;49.208;12.080;2022-12-05T15:05:26;3.00;99.90
39079;DHT22;24829;49.208;12.080;2022-12-05T15:07:55;2.90;99.90
39079;DHT22;24829;49.208;12.080;2022-12-05T15:10:27;3.00;99.90
39079;DHT22;24829;49.208;12.080;2022-12-05T15:12:57;3.00;99.90
39079;DHT22;24829;49.208;12.080;2022-12-05T15:18:21;3.00;99.90
39079;DHT22;24829;49.208;12.080;2022-12-05T15:20:53;3.00;99.90
39079;DHT22;24829;49.208;12.080;2022-12-05T15:23:48;3.00;99.90
39079;DHT22;24829;49.208;12.080;2022-12-05T15:26:43;3.00;99.90
39079;DHT22;24829;49.208;12.080;2022-12-05T15:34:25;3.10;99.90
39079;DHT22;24829;49.208;12.080;2022-12-05T15:37:03;3.10;99.90
39079;DHT22;24829;49.208;12.080;2022-12-05T15:39:53;3.10;99.90
39079;DHT22;24829;49.208;12.080;2022-12-05T15:42:21;3.10;99.90
39079;DHT22;24829;49.208;12.080;2022-12-05T15:44:47;3.10;99.90
39079;DHT22;24829;49.208;12.080;2022-12-05T15:47:24;3.10;99.90
39079;DHT22;24829;49.208;12.080;2022-12-05T15:49:50;3.20;99.90
39079;DHT22;24829;49.208;12.080;2022-12-05T15:55:37;3.20;99.90
39079;DHT22;24829;49.208;12.080;2022-12-05T15:58:22;3.20;99.90
39079;DHT22;24829;49.208;12.080;2022-12-05T16:00:56;3.20;99.90
39079;DHT22;24829;49.208;12.080;2022-12-05T16:06:17;3.20;99.90
39079;DHT22;24829;49.208;12.080;2022-12-05T16:08:45;3.20;99.90
39079;DHT22;24829;49.208;12.080;2022-12-05T16:11:13;3.20;99.90
39079;DHT22;24829;49.208;12.080;2022-12-05T16:13:48;3.20;99.90
39079;DHT22;24829;49.208;12.080;2022-12-05T16:16:21;3.20;99.90
39079;DHT22;24829;49.208;12.080;2022-12-05T16:18:52;3.20;99.90
39079;DHT22;24829;49.208;12.080;2022-12-05T16:21:36;3.20;99.90
39079;DHT22;24829;49.208;12.080;2022-12-05T16:24:14;3.20;99.90
39079;DHT22;24829;49.208;12.080;2022-12-05T16:26:41;3.10;99.90
39079;DHT22;24829;49.208;12.080;2022-12-05T16:29:24;3.00;99.90
39079;DHT22;24829;49.208;12.080;2022-12-05T16:31:56;3.00;99.90
39079;DHT22;24829;49.208;12.080;2022-12-05T16:34:23;2.90;99.90
39079;DHT22;24829;49.208;12.080;2022-12-05T16:36:52;2.80;99.90
39079;DHT22;24829;49.208;12.080;2022-12-05T16:39:19;2.80;99.90
39079;DHT22;24829;49.208;12.080;2022-12-05T16:41:45;2.70;99.90
39079;DHT22;24829;49.208;12.080;2022-12-05T16:46:53;2.70;99.90
39079;DHT22;24829;49.208;12.080;2022-12-05T16:49:33;2.80;99.90
39079;DHT22;24829;49.208;12.080;2022-12-05T16:54:26;2.80;99.90
39079;DHT22;24829;49.208;12.080;2022-12-05T16:56:51;2.80;99.90
39079;DHT22;24829;49.208;12.080;2022-12-05T16:59:34;2.80;99.90
39079;DHT22;24829;49.208;12.080;2022-12-05T17:02:02;2.80;99.90
39079;DHT22;24829;49.208;12.080;2022-12-05T17:04:28;2.90;99.90
39079;DHT22;24829;49.208;12.080;2022-12-05T17:06:53;2.90;99.90
39079;DHT22;24829;49.208;12.080;2022-12-05T17:09:19;2.90;99.90
39079;DHT22;24829;49.208;12.080;2022-12-05T17:11:46;2.90;99.90
39079;DHT22;24829;49.208;12.080;2022-12-05T17:14:14;2.90;99.90
39079;DHT22;24829;49.208;12.080;2022-12-05T17:16:40;2.90;99.90
39079;DHT22;24829;49.208;12.080;2022-12-05T17:19:07;2.90;99.90
39079;DHT22;24829;49.208;12.080;2022-12-05T17:21:33;2.90;99.90
39079;DHT22;24829;49.208;12.080;2022-12-05T17:23:59;3.00;99.90
39079;DHT22;24829;49.208;12.080;2022-12-05T17:26:25;3.00;99.90
39079;DHT22;24829;49.208;12.080;2022-12-05T17:28:51;3.10;99.90
39079;DHT22;24829;49.208;12.080;2022-12-05T17:31:19;3.10;99.90
39079;DHT22;24829;49.208;12.080;2022-12-05T17:33:46;3.10;99.90
39079;DHT22;24829;49.208;12.080;2022-12-05T17:36:12;3.10;99.90
39079;DHT22;24829;49.208;12.080;2022-12-05T17:38:38;3.10;99.90
39079;DHT22;24829;49.208;12.080;2022-12-05T17:41:04;3.10;99.90
39079;DHT22;24829;49.208;12.080;2022-12-05T17:43:30;3.10;99.90
39079;DHT22;24829;49.208;12.080;2022-12-05T17:45:59;3.10;99.90
39079;DHT22;24829;49.208;12.080;2022-12-05T17:48:24;3.10;99.90
39079;DHT22;24829;49.208;12.080;2022-12-05T17:50:51;3.20;99.90
39079;DHT22;24829;49.208;12.080;2022-12-05T17:53:18;3.20;99.90
39079;DHT22;24829;49.208;12.080;2022-12-05T17:55:44;3.20;99.90
39079;DHT22;24829;49.208;12.080;2022-12-05T17:58:13;3.10;99.90
39079;DHT22;24829;49.208;12.080;2022-12-05T18:00:40;3.10;99.90
39079;DHT22;24829;49.208;12.080;2022-12-05T18:03:08;3.10;99.90
39079;DHT22;24829;49.208;12.080;2022-12-05T18:05:36;3.20;99.90
39079;DHT22;24829;49.208;12.080;2022-12-05T18:08:02;3.10;99.90
39079;DHT22;24829;49.208;12.080;2022-12-05T18:10:27;3.20;99.90
39079;DHT22;24829;49.208;12.080;2022-12-05T18:12:53;3.10;99.90
39079;DHT22;24829;49.208;12.080;2022-12-05T18:15:18;3.10;99.90
39079;DHT22;24829;49.208;12.080;2022-12-05T18:17:44;3.10;99.90
39079;DHT22;24829;49.208;12.080;2022-12-05T18:20:11;3.10;99.90
39079;DHT22;24829;49.208;12.080;2022-12-05T18:22:37;3.10;99.90
39079;DHT22;24829;49.208;12.080;2022-12-05T18:25:04;3.10;99.90
39079;DHT22;24829;49.208;12.080;2022-12-05T18:27:30;3.10;99.90
39079;DHT22;24829;49.208;12.080;2022-12-05T18:29:56;3.10;99.90
39079;DHT22;24829;49.208;12.080;2022-12-05T18:32:21;3.10;99.90